Time;durP1;ratioP1;P1;durP2;ratioP2;P2;SDS_P1;SDS_P2;PMS_P1;PMS_P2;Temp;Humidity;BMP_temperature;BMP_pressure;BME280_temperature;BME280_humidity;BME280_pressure;Samples;Min_cycle;Max_cycle;Signal;HPM_P1;HPM_P2
2020/12/11 07:11:35;;;;;;;89.97;39.90;;;-0.40;99.90;;;;;;1908623;28;20405;31
2020/12/11 07:15:12;;;;;;;97.18;40.28;;;-0.40;99.90;;;;;;1000528;29;20392;-89
2020/12/11 07:18:17;;;;;;;105.10;41.28;;;-0.40;99.90;;;;;;704074;29;22023;-89
2020/12/11 07:32:25;;;;;;;95.60;41.03;;;-0.30;99.90;;;;;;856428;29;20405;-88
2020/12/11 07:39:26;;;;;;;107.50;43.03;;;-0.30;99.90;;;;;;881200;29;20765;-89
2020/12/11 08:00:23;;;;;;;105.25;45.97;;;-0.10;99.90;;;;;;1384416;29;21938;-86
2020/12/11 08:03:09;;;;;;;112.22;48.17;;;-0.10;99.90;;;;;;723431;29;20499;-90
2020/12/11 08:20:21;;;;;;;118.97;48.45;;;0.20;99.90;;;;;;1444205;28;20420;-89
2020/12/11 08:26:52;;;;;;;102.78;46.10;;;0.40;99.90;;;;;;767412;29;20404;-91
2020/12/11 08:33:51;;;;;;;108.70;46.72;;;0.80;99.90;;;;;;890056;29;20415;-90
2020/12/11 08:40:21;;;;;;;116.78;49.20;;;0.80;99.90;;;;;;1634324;29;20400;-89
2020/12/11 08:43:47;;;;;;;123.32;52.50;;;0.80;99.90;;;;;;874738;29;20397;-91
2020/12/11 08:50:59;;;;;;;123.95;50.95;;;0.80;99.90;;;;;;918719;29;20413;-88
2020/12/11 09:00:01;;;;;;;132.93;51.90;;;0.90;99.90;;;;;;928549;30;21856;31
2020/12/11 09:03:14;;;;;;;119.45;49.15;;;0.90;99.90;;;;;;903961;29;20409;-89
2020/12/11 09:06:30;;;;;;;121.03;50.20;;;0.90;99.90;;;;;;1388965;29;20435;-88
2020/12/11 09:11:59;;;;;;;125.87;53.33;;;1.00;99.90;;;;;;1114355;30;21848;-88
2020/12/11 09:15:00;;;;;;;130.32;53.40;;;1.00;99.90;;;;;;720787;30;20414;-87
2020/12/11 09:18:04;;;;;;;131.63;55.50;;;1.00;99.90;;;;;;868038;29;20579;-90
2020/12/11 09:21:09;;;;;;;128.68;52.70;;;1.10;99.90;;;;;;781044;29;20414;-90
2020/12/11 09:24:28;;;;;;;124.25;51.50;;;1.20;99.90;;;;;;1233940;30;20491;-89
2020/12/11 09:28:10;;;;;;;119.55;50.40;;;1.30;99.90;;;;;;975296;29;20412;-90
2020/12/11 09:46:49;;;;;;;110.93;51.20;;;2.20;99.90;;;;;;895314;29;22431;-90
2020/12/11 10:12:09;;;;;;;100.22;46.42;;;3.10;99.90;;;;;;675489;28;22313;-87
2020/12/11 11:05:29;;;;;;;90.62;47.67;;;3.80;99.90;;;;;;1865458;29;20557;-89
2020/12/11 11:24:29;;;;;;;78.68;37.20;;;3.70;99.90;;;;;;1845633;30;20583;-88
2020/12/11 11:30:58;;;;;;;71.22;36.15;;;3.70;99.90;;;;;;1511400;30;20439;-88
2020/12/11 11:33:53;;;;;;;70.03;36.13;;;3.70;99.90;;;;;;1350253;29;20503;-89
2020/12/11 11:48:40;;;;;;;76.78;39.28;;;3.80;99.90;;;;;;1082374;29;20426;-92
2020/12/11 11:52:26;;;;;;;78.57;38.63;;;3.80;99.90;;;;;;806813;30;20435;-86
2020/12/11 11:55:43;;;;;;;82.65;41.03;;;3.80;99.90;;;;;;951634;30;20490;-91
2020/12/11 11:58:23;;;;;;;81.97;40.70;;;3.80;99.90;;;;;;1841599;29;21710;-91
2020/12/11 12:02:08;;;;;;;77.12;38.10;;;3.80;99.90;;;;;;973972;29;20399;-87
2020/12/11 12:05:26;;;;;;;78.82;39.55;;;3.80;99.90;;;;;;788814;29;20436;-89
2020/12/11 12:30:38;;;;;;;60.53;31.08;;;3.90;99.90;;;;;;1523380;28;20454;-91
2020/12/11 12:47:21;;;;;;;59.05;31.98;;;4.10;99.90;;;;;;673678;28;21900;-91
2020/12/11 12:50:28;;;;;;;75.45;38.58;;;4.00;99.90;;;;;;1338354;29;20416;-91
2020/12/11 13:06:53;;;;;;;96.12;42.80;;;4.10;99.90;;;;;;896359;28;21784;-92
2020/12/11 13:31:17;;;;;;;49.95;25.10;;;3.90;99.90;;;;;;922358;28;20415;-92
2020/12/11 13:38:09;;;;;;;37.50;22.42;;;3.90;99.90;;;;;;1484795;28;20421;-88
2020/12/11 13:41:43;;;;;;;44.53;25.17;;;3.90;99.90;;;;;;711091;28;20414;-90
2020/12/11 14:12:46;;;;;;;47.72;28.33;;;3.90;99.90;;;;;;3266526;28;20171;-91
2020/12/11 14:15:53;;;;;;;61.00;32.28;;;3.90;99.90;;;;;;2036965;28;20142;-91
2020/12/11 14:22:35;;;;;;;238.45;95.78;;;3.80;99.90;;;;;;2005019;28;20291;-91
2020/12/11 14:30:56;;;;;;;210.98;82.37;;;3.80;99.90;;;;;;1917609;28;20501;-91
2020/12/11 14:36:37;;;;;;;226.43;81.12;;;3.70;99.90;;;;;;2048500;29;20473;-91
2020/12/11 14:39:31;;;;;;;241.15;87.68;;;3.70;99.90;;;;;;1923570;29;20186;-91
2020/12/11 14:42:55;;;;;;;211.95;85.72;;;3.70;99.90;;;;;;1910934;29;20131;-89
2020/12/11 14:45:54;;;;;;;134.05;57.78;;;3.60;99.90;;;;;;1870061;29;20588;-90
2020/12/11 14:51:36;;;;;;;131.93;61.28;;;3.60;99.90;;;;;;1873682;29;20517;-89
2020/12/11 14:54:47;;;;;;;83.65;42.13;;;3.60;99.90;;;;;;1856712;29;21697;-90
2020/12/11 14:58:07;;;;;;;82.20;40.65;;;3.50;99.90;;;;;;1843447;29;20539;-90
2020/12/11 15:05:14;;;;;;;;;;;;;;;;;;;;;
2020/12/11 15:08:52;;;;;;;36.42;20.88;;;3.30;99.90;;;;;;2156751;30;20175;-90
2020/12/11 15:12:04;;;;;;;36.22;20.80;;;3.30;99.90;;;;;;2076306;30;20547;-91
2020/12/11 15:15:36;;;;;;;40.50;21.30;;;3.30;99.90;;;;;;1838417;30;20527;-89
2020/12/11 15:23:42;;;;;;;40.08;22.27;;;3.10;99.90;;;;;;1843385;30;20735;-90
2020/12/11 15:26:58;;;;;;;44.35;23.50;;;3.10;99.90;;;;;;1831756;30;20514;-90
2020/12/11 15:29:52;;;;;;;42.70;22.45;;;3.10;99.90;;;;;;1852013;29;20594;-91
2020/12/11 15:33:05;;;;;;;41.58;21.58;;;3.00;99.90;;;;;;1890468;29;20124;-90
2020/12/11 15:36:16;;;;;;;33.95;20.45;;;3.00;99.90;;;;;;1850244;30;20584;-90
2020/12/11 15:39:24;;;;;;;37.13;20.10;;;3.00;99.90;;;;;;1844971;29;21694;-89
2020/12/11 15:42:24;;;;;;;40.20;20.77;;;3.00;99.90;;;;;;1850949;29;20517;-90
2020/12/11 15:45:48;;;;;;;32.38;20.20;;;2.90;99.90;;;;;;1860034;29;20704;-90
2020/12/11 15:48:45;;;;;;;31.62;18.70;;;2.90;99.90;;;;;;1912007;29;20238;-90
2020/12/11 15:51:53;;;;;;;31.85;17.77;;;2.90;99.90;;;;;;1851822;29;20523;-90
2020/12/11 15:54:46;;;;;;;29.60;16.33;;;2.80;99.90;;;;;;1865583;29;20537;-90
2020/12/11 15:57:58;;;;;;;30.08;17.02;;;2.80;99.90;;;;;;1926711;29;20533;-90
2020/12/11 16:00:51;;;;;;;25.30;15.13;;;2.70;99.90;;;;;;1856742;29;20577;-90
2020/12/11 16:03:54;;;;;;;31.37;17.45;;;2.70;99.90;;;;;;1923520;29;21091;-90
2020/12/11 16:06:45;;;;;;;36.15;20.80;;;2.60;99.90;;;;;;1852954;29;20537;-88
2020/12/11 16:09:56;;;;;;;37.85;21.90;;;2.60;99.90;;;;;;1903758;29;20186;-90
2020/12/11 16:12:46;;;;;;;40.50;20.88;;;2.50;99.90;;;;;;1863874;29;20602;-89
2020/12/11 16:15:58;;;;;;;40.10;22.13;;;2.40;99.90;;;;;;1863950;29;20502;-86
2020/12/11 16:19:05;;;;;;;39.13;21.48;;;2.40;99.90;;;;;;1978819;29;20526;-89
2020/12/11 16:22:13;;;;;;;38.47;21.23;;;2.40;99.90;;;;;;1861461;29;20500;-89
2020/12/11 16:25:11;;;;;;;33.15;20.67;;;2.30;99.90;;;;;;1851513;29;20499;-89
2020/12/11 16:28:19;;;;;;;41.13;23.50;;;2.30;99.90;;;;;;1845857;30;21824;-90
2020/12/11 16:31:16;;;;;;;43.95;24.45;;;2.30;99.90;;;;;;1893394;29;20110;-89
2020/12/11 16:34:24;;;;;;;43.63;24.20;;;2.20;99.90;;;;;;1865351;29;20579;-88
2020/12/11 16:37:30;;;;;;;57.05;30.48;;;2.20;99.90;;;;;;1856562;29;20543;-88
2020/12/11 16:40:38;;;;;;;60.08;31.17;;;2.20;99.90;;;;;;1875294;29;20524;-89
2020/12/11 16:43:37;;;;;;;118.32;52.22;;;2.10;99.90;;;;;;1889116;29;20497;-89
2020/12/11 16:47:06;;;;;;;214.90;81.78;;;2.10;99.90;;;;;;941221;29;20416;-88
2020/12/11 16:53:42;;;;;;;159.27;65.28;;;2.00;99.90;;;;;;1306197;29;21941;-89
2020/12/11 16:56:28;;;;;;;143.48;62.30;;;2.00;99.90;;;;;;1272521;29;20442;-87
2020/12/11 16:59:46;;;;;;;122.25;54.25;;;1.90;99.90;;;;;;1840392;29;22325;-88
2020/12/11 17:02:45;;;;;;;89.43;41.13;;;1.90;99.90;;;;;;728343;29;20547;-86
2020/12/11 17:09:26;;;;;;;92.68;45.85;;;1.90;99.90;;;;;;849067;29;20453;-88
2020/12/11 17:16:07;;;;;;;60.05;32.45;;;1.80;99.90;;;;;;727674;29;20488;-88
2020/12/11 17:26:39;;;;;;;99.57;55.85;;;1.70;99.90;;;;;;1215712;29;21964;-89
2020/12/11 17:29:48;;;;;;;96.50;51.70;;;1.70;99.90;;;;;;1376110;29;21842;-89
2020/12/11 17:33:01;;;;;;;75.90;43.40;;;1.70;99.90;;;;;;1954731;29;20058;-89
2020/12/11 17:39:33;;;;;;;74.35;43.35;;;1.60;99.90;;;;;;1882189;29;20505;-89
2020/12/11 17:42:43;;;;;;;71.35;39.03;;;1.60;99.90;;;;;;1860036;29;20426;31
2020/12/11 17:45:49;;;;;;;65.40;34.92;;;1.50;99.90;;;;;;1860211;29;20448;-88
2020/12/11 17:48:32;;;;;;;67.95;35.15;;;1.50;99.90;;;;;;1948458;29;20184;-89
2020/12/11 17:51:37;;;;;;;66.87;34.10;;;1.50;99.90;;;;;;1953650;29;21288;-89
2020/12/11 17:54:51;;;;;;;107.72;51.95;;;1.50;99.90;;;;;;1327555;29;20469;-88
2020/12/11 17:57:54;;;;;;;88.72;43.78;;;1.50;99.90;;;;;;1883088;30;20140;-90
2020/12/11 18:01:16;;;;;;;133.80;55.85;;;1.40;99.90;;;;;;1852803;29;21818;-90
2020/12/11 18:04:27;;;;;;;81.57;40.17;;;1.40;99.90;;;;;;1856092;29;20499;-89
2020/12/11 18:07:16;;;;;;;83.30;40.38;;;1.40;99.90;;;;;;1846602;29;20472;31
2020/12/11 18:10:27;;;;;;;81.32;39.95;;;1.40;99.90;;;;;;2009271;29;20500;-90
2020/12/11 18:13:26;;;;;;;86.47;41.88;;;1.40;99.90;;;;;;1872613;29;20550;-91
2020/12/11 18:16:34;;;;;;;106.12;53.78;;;1.40;99.90;;;;;;2125176;29;20551;-90
2020/12/11 18:19:32;;;;;;;98.53;51.55;;;1.40;99.90;;;;;;2393183;29;20144;-88
2020/12/11 18:22:54;;;;;;;81.60;42.13;;;1.40;99.90;;;;;;2361564;29;20123;-90
2020/12/11 18:26:06;;;;;;;87.62;43.75;;;1.40;99.90;;;;;;1875253;29;21746;-90
2020/12/11 18:29:23;;;;;;;79.90;41.67;;;1.40;99.90;;;;;;2000788;29;20168;-90
2020/12/11 18:32:17;;;;;;;69.18;38.03;;;1.30;99.90;;;;;;2016146;29;20189;-89
2020/12/11 18:35:45;;;;;;;68.03;37.28;;;1.40;99.90;;;;;;2047887;29;20220;-90
2020/12/11 18:38:49;;;;;;;67.65;36.13;;;1.30;99.90;;;;;;1878441;29;20432;31
2020/12/11 18:41:57;;;;;;;71.70;35.78;;;1.30;99.90;;;;;;2205440;29;20555;-92
2020/12/11 18:44:51;;;;;;;71.37;35.55;;;1.30;99.90;;;;;;2624389;29;20173;-92
2020/12/11 18:48:00;;;;;;;68.35;35.20;;;1.20;99.90;;;;;;2395043;29;21512;-91
2020/12/11 18:51:20;;;;;;;62.00;33.17;;;1.30;99.90;;;;;;2660119;29;20163;-91
2020/12/11 18:54:39;;;;;;;68.45;35.90;;;1.30;99.90;;;;;;2145553;29;20404;-91
2020/12/11 18:57:33;;;;;;;73.68;36.25;;;1.30;99.90;;;;;;1964506;29;22281;-91
2020/12/11 19:02:53;;;;;;;81.80;38.75;;;1.20;99.90;;;;;;2029596;29;20465;-92
2020/12/11 19:06:02;;;;;;;83.80;43.35;;;1.20;99.90;;;;;;1878676;29;20515;-92
2020/12/11 19:08:56;;;;;;;101.87;49.45;;;1.20;99.90;;;;;;1880345;29;20603;-92
2020/12/11 19:12:05;;;;;;;91.55;45.00;;;1.10;99.90;;;;;;2308506;29;20501;-92
2020/12/11 19:15:06;;;;;;;88.22;42.62;;;1.10;99.90;;;;;;1893802;30;21895;-91
2020/12/11 19:23:03;;;;;;;;;;;;;;;;;;;;;
2020/12/11 19:29:30;;;;;;;83.22;42.35;;;1.00;99.90;;;;;;2198079;30;21737;-91
2020/12/11 19:42:50;;;;;;;61.08;28.23;;;1.10;99.90;;;;;;1830546;29;21808;-91
2020/12/11 19:45:48;;;;;;;77.97;38.63;;;1.10;99.90;;;;;;2264813;29;21083;-91
2020/12/11 19:48:53;;;;;;;62.45;33.33;;;1.10;99.90;;;;;;1899085;28;20507;-90
2020/12/11 19:51:46;;;;;;;70.68;36.60;;;1.10;99.90;;;;;;1901150;28;21743;-91
2020/12/11 19:54:53;;;;;;;;;;;1.10;99.90;;;;;;1893343;29;20492;-90
2020/12/11 19:58:05;;;;;;;63.33;32.55;;;1.10;99.90;;;;;;1894346;29;20383;-90
2020/12/11 20:01:13;;;;;;;108.03;54.88;;;1.10;99.90;;;;;;1887743;29;20496;-90
2020/12/11 20:04:25;;;;;;;89.37;47.08;;;1.00;99.90;;;;;;1896007;29;20504;-90
2020/12/11 20:10:01;;;;;;;90.87;46.92;;;1.00;99.90;;;;;;1910886;29;20480;-90
2020/12/11 20:13:09;;;;;;;88.12;45.83;;;0.90;99.90;;;;;;1845186;29;20120;-86
2020/12/11 20:16:07;;;;;;;91.78;46.63;;;0.90;99.90;;;;;;1881822;29;20582;-89
2020/12/11 20:19:16;;;;;;;93.12;46.63;;;0.90;99.90;;;;;;1918890;29;20194;-90
2020/12/11 20:22:24;;;;;;;88.45;48.42;;;0.80;99.90;;;;;;1880280;29;21726;-88
2020/12/11 20:25:33;;;;;;;92.55;46.30;;;0.80;99.90;;;;;;1886590;29;20488;-89
2020/12/11 20:28:29;;;;;;;91.97;45.63;;;0.80;99.90;;;;;;1875848;28;21506;31
2020/12/11 20:31:35;;;;;;;100.00;49.70;;;0.80;99.90;;;;;;1884005;29;20509;-89
2020/12/11 20:34:28;;;;;;;89.97;46.33;;;0.80;99.90;;;;;;1878978;29;20826;-89
2020/12/11 20:37:36;;;;;;;99.00;51.72;;;0.70;99.90;;;;;;1791782;29;20134;-90
2020/12/11 20:40:43;;;;;;;106.68;54.58;;;0.80;99.90;;;;;;1871466;29;20533;-89
2020/12/11 20:43:51;;;;;;;101.65;51.72;;;0.70;99.90;;;;;;1870507;29;20498;-89
2020/12/11 20:46:44;;;;;;;119.78;57.30;;;0.70;99.90;;;;;;1882937;29;20598;-88
2020/12/11 20:49:46;;;;;;;128.18;56.08;;;0.70;99.90;;;;;;1947773;29;20293;-90
2020/12/11 20:52:35;;;;;;;125.40;56.42;;;0.70;99.90;;;;;;1870550;29;20601;-87
2020/12/11 20:55:42;;;;;;;121.50;58.05;;;0.70;99.90;;;;;;1887589;29;21939;-88
2020/12/11 20:58:35;;;;;;;115.90;57.92;;;0.60;99.90;;;;;;1887720;29;20611;-90
2020/12/11 21:01:40;;;;;;;117.73;55.93;;;0.60;99.90;;;;;;1886893;29;20531;-90
2020/12/11 21:04:32;;;;;;;129.52;60.72;;;0.50;99.90;;;;;;1889100;29;20567;-90
2020/12/11 21:07:40;;;;;;;134.47;60.53;;;0.50;99.90;;;;;;1892494;29;20555;-88
2020/12/11 21:10:34;;;;;;;126.32;60.60;;;0.50;99.90;;;;;;1898692;28;20767;-89
2020/12/11 21:13:45;;;;;;;130.20;58.87;;;0.50;99.90;;;;;;1903015;28;20545;-89
2020/12/11 21:17:02;;;;;;;133.68;61.40;;;0.40;99.90;;;;;;1894409;29;21167;-89
2020/12/11 21:20:12;;;;;;;144.02;65.93;;;0.40;99.90;;;;;;1995102;29;21348;-90
2020/12/11 21:22:54;;;;;;;167.30;72.87;;;0.50;99.90;;;;;;1919080;29;20188;-90
2020/12/11 21:25:57;;;;;;;132.07;61.13;;;0.50;99.90;;;;;;1912117;29;20208;-91
2020/12/11 21:29:04;;;;;;;131.50;59.95;;;0.50;99.90;;;;;;1865984;29;20514;-91
2020/12/11 21:38:17;;;;;;;147.10;64.22;;;0.50;99.90;;;;;;1858412;29;20432;31
2020/12/11 21:41:33;;;;;;;125.35;58.03;;;0.50;99.90;;;;;;1865862;29;20626;-90
2020/12/11 21:44:43;;;;;;;132.27;61.55;;;0.50;99.90;;;;;;1906099;29;20453;-90
2020/12/11 21:47:54;;;;;;;107.70;54.38;;;0.50;99.90;;;;;;1883886;29;20517;-91
2020/12/11 21:51:02;;;;;;;129.40;61.10;;;0.50;99.90;;;;;;1838155;29;21696;-89
2020/12/11 21:54:03;;;;;;;127.15;62.83;;;0.50;99.90;;;;;;1907974;29;20127;-90
2020/12/11 21:57:15;;;;;;;126.95;59.70;;;0.50;99.90;;;;;;1761838;29;21748;-90
2020/12/11 22:00:17;;;;;;;116.07;57.45;;;0.50;99.90;;;;;;1818157;29;20461;31
2020/12/11 22:03:16;;;;;;;125.18;60.45;;;0.50;99.90;;;;;;1745235;30;20700;-88
2020/12/11 22:06:13;;;;;;;120.78;59.20;;;0.40;99.90;;;;;;835144;30;20576;-89
2020/12/11 22:09:11;;;;;;;124.55;57.70;;;0.50;99.90;;;;;;1750959;30;20629;-90
2020/12/11 22:12:12;;;;;;;125.57;60.63;;;0.60;99.90;;;;;;1818637;30;20442;-91
2020/12/11 22:17:42;;;;;;;111.53;55.30;;;0.40;99.90;;;;;;1893794;29;20544;-90
2020/12/11 22:20:43;;;;;;;110.47;55.17;;;0.40;99.90;;;;;;1934911;29;20211;-91
2020/12/11 22:23:49;;;;;;;121.90;57.08;;;0.50;99.90;;;;;;1860920;29;20510;31
2020/12/11 22:26:53;;;;;;;123.13;59.67;;;0.40;99.90;;;;;;1860325;29;20460;31
2020/12/11 22:29:38;;;;;;;130.63;59.88;;;0.40;99.90;;;;;;1866689;29;20305;-90
2020/12/11 22:32:38;;;;;;;126.25;61.05;;;0.40;99.90;;;;;;1875642;29;20459;31
2020/12/11 22:35:29;;;;;;;125.40;59.67;;;0.40;99.90;;;;;;1883165;29;20527;-90
2020/12/11 22:38:36;;;;;;;126.90;59.85;;;0.40;99.90;;;;;;1844528;29;21781;-91
2020/12/11 22:41:48;;;;;;;130.73;60.12;;;0.40;99.90;;;;;;968322;29;20402;-88
2020/12/11 22:44:55;;;;;;;124.75;56.85;;;0.30;99.90;;;;;;1874640;29;20628;-89
2020/12/11 22:50:19;;;;;;;126.12;59.42;;;0.30;99.90;;;;;;1886382;29;20889;-89
2020/12/11 22:53:27;;;;;;;139.10;61.78;;;0.20;99.90;;;;;;1877091;29;20517;-90
2020/12/11 22:56:21;;;;;;;122.97;57.95;;;0.20;99.90;;;;;;1918489;29;20135;-89
2020/12/11 22:59:28;;;;;;;130.98;60.17;;;0.20;99.90;;;;;;1890348;29;20499;-89
2020/12/11 23:02:15;;;;;;;131.12;60.55;;;0.30;99.90;;;;;;1940307;29;20180;-89
2020/12/11 23:05:24;;;;;;;150.70;63.22;;;0.20;99.90;;;;;;1882582;29;20545;-90
2020/12/11 23:08:35;;;;;;;139.30;61.60;;;0.10;99.90;;;;;;1885180;29;20517;-89
2020/12/11 23:11:42;;;;;;;130.73;61.55;;;0.10;99.90;;;;;;1850163;29;20450;-89
2020/12/11 23:17:12;;;;;;;140.48;62.78;;;0.10;99.90;;;;;;1879481;29;20569;-91
2020/12/11 23:20:20;;;;;;;136.73;59.58;;;0.00;99.90;;;;;;1871140;29;20670;-90
2020/12/11 23:23:17;;;;;;;135.32;58.78;;;0.00;99.90;;;;;;1886545;29;20552;-89
2020/12/11 23:26:25;;;;;;;131.07;58.95;;;0.00;99.90;;;;;;1830765;29;21751;-89
2020/12/11 23:29:25;;;;;;;123.65;59.17;;;0.00;99.90;;;;;;1925437;28;20123;-88
2020/12/11 23:35:04;;;;;;;114.90;55.65;;;-0.10;99.90;;;;;;1860813;29;21266;31
2020/12/11 23:38:09;;;;;;;125.62;59.33;;;-0.10;99.90;;;;;;1769277;29;21219;-90
2020/12/11 23:43:23;;;;;;;121.40;56.40;;;-0.20;99.90;;;;;;1856620;29;21260;-92
2020/12/11 23:46:33;;;;;;;127.50;59.35;;;-0.20;99.90;;;;;;1964584;29;20190;-91
2020/12/11 23:49:25;;;;;;;109.47;50.40;;;-0.20;99.90;;;;;;1957699;28;20310;-93
2020/12/11 23:52:31;;;;;;;127.72;58.03;;;-0.20;99.90;;;;;;1778057;29;20535;-90
2020/12/11 23:55:34;;;;;;;127.43;56.85;;;-0.20;99.90;;;;;;2022053;29;20127;-90
2020/12/11 23:58:37;;;;;;;110.60;52.08;;;-0.30;99.90;;;;;;2027995;28;21097;-91
